Time,TemperatureF,DewpointF,PressureIn,WindDirection,WindDirectionDegrees,WindSpeedMPH,WindSpeedGustMPH,Humidity,HourlyPrecipIn,Conditions,Clouds,dailyrainin,SoftwareType,DateUTC
2013-02-13 00:00:00,26.4,15.6,28.73,SSW,203,0.0,0.0,63,0.00,,CLR,0.00,VWS V14.00,2013-02-13 06:00:00,
2013-02-13 00:05:00,26.2,15.4,28.73,SSW,202,0.0,0.0,63,0.00,,CLR,0.00,VWS V14.00,2013-02-13 06:05:00,
2013-02-13 00:10:00,26.1,15.2,28.73,SSW,202,0.0,0.0,63,0.00,,CLR,0.00,VWS V14.00,2013-02-13 06:10:00,
2013-02-13 00:15:00,25.9,15.0,28.73,SSW,203,0.0,0.0,63,0.00,,CLR,0.00,VWS V14.00,2013-02-13 06:15:00,
2013-02-13 00:20:00,25.9,15.4,28.73,SSW,202,0.0,0.0,64,0.00,,CLR,0.00,VWS V14.00,2013-02-13 06:20:00,
2013-02-13 00:25:00,25.7,15.2,28.73,SSW,203,0.0,0.0,64,0.00,,CLR,0.00,VWS V14.00,2013-02-13 06:25:00,
2013-02-13 00:30:00,25.3,14.9,28.73,SSW,203,0.0,0.0,64,0.00,,CLR,0.00,VWS V14.00,2013-02-13 06:30:00,
2013-02-13 00:35:00,25.3,14.9,28.73,SSW,203,0.0,0.0,64,0.00,,CLR,0.00,VWS V14.00,2013-02-13 06:35:00,
2013-02-13 00:40:00,25.3,15.2,28.73,SSW,202,0.0,0.0,65,0.00,,CLR,0.00,VWS V14.00,2013-02-13 06:40:00,
2013-02-13 00:45:00,25.9,16.1,28.73,SSW,203,0.0,0.0,66,0.00,,CLR,0.00,VWS V14.00,2013-02-13 06:45:00,
2013-02-13 00:50:00,25.9,16.5,28.73,SSW,203,0.0,0.0,67,0.00,,CLR,0.00,VWS V14.00,2013-02-13 06:50:00,
2013-02-13 00:55:00,25.7,16.3,28.73,SSW,203,0.0,0.0,67,0.00,,CLR,0.00,VWS V14.00,2013-02-13 06:55:00,
2013-02-13 01:00:00,25.9,16.8,28.73,SSW,202,0.0,0.0,68,0.00,,CLR,0.00,VWS V14.00,2013-02-13 07:00:00,
2013-02-13 01:05:00,26.1,17.0,28.73,SSW,203,0.0,0.0,68,0.00,,CLR,0.00,VWS V14.00,2013-02-13 07:05:00,
2013-02-13 01:10:00,26.1,17.0,28.73,SSW,202,0.0,0.0,68,0.00,,CLR,0.00,VWS V14.00,2013-02-13 07:10:00,
2013-02-13 01:15:00,26.1,17.3,28.73,SSW,202,0.0,0.0,69,0.00,,CLR,0.00,VWS V14.00,2013-02-13 07:15:00,
2013-02-13 01:20:00,26.1,17.3,28.73,SSW,203,0.0,0.0,69,0.00,,CLR,0.00,VWS V14.00,2013-02-13 07:20:00,
2013-02-13 01:25:00,26.6,18.1,28.73,SSW,203,2.2,3.1,70,0.00,,CLR,0.00,VWS V14.00,2013-02-13 07:25:00,
2013-02-13 01:30:00,26.6,18.1,28.73,SSW,193,0.0,0.0,70,0.00,,CLR,0.00,VWS V14.00,2013-02-13 07:30:00,
2013-02-13 01:35:00,26.8,18.0,28.73,SSW,194,0.0,3.6,69,0.00,,CLR,0.00,VWS V14.00,2013-02-13 07:35:00,
2013-02-13 01:40:00,26.4,17.3,28.73,SSW,199,0.0,0.0,68,0.00,,CLR,0.00,VWS V14.00,2013-02-13 07:40:00,
2013-02-13 01:45:00,26.1,16.6,28.73,SSW,199,0.0,0.0,67,0.00,,CLR,0.00,VWS V14.00,2013-02-13 07:45:00,
2013-02-13 01:50:00,26.1,16.6,28.73,SSW,199,0.0,0.0,67,0.00,,CLR,0.00,VWS V14.00,2013-02-13 07:50:00,
2013-02-13 01:55:00,26.1,16.6,28.73,SSW,198,0.0,0.0,67,0.00,,CLR,0.00,VWS V14.00,2013-02-13 07:55:00,
2013-02-13 02:00:00,26.2,16.8,28.73,SSW,196,0.0,0.0,67,0.00,,CLR,0.00,VWS V14.00,2013-02-13 08:00:00,
2013-02-13 02:05:00,26.6,17.5,28.73,SSW,197,0.0,2.2,68,0.00,,CLR,0.00,VWS V14.00,2013-02-13 08:05:00,
2013-02-13 02:10:00,26.8,17.3,28.73,SSW,208,2.2,2.2,67,0.00,,CLR,0.00,VWS V14.00,2013-02-13 08:10:00,
2013-02-13 02:15:00,27.1,17.3,28.73,SSW,211,0.0,4.0,66,0.00,,CLR,0.00,VWS V14.00,2013-02-13 08:15:00,
2013-02-13 02:20:00,27.0,16.8,28.73,SSW,207,4.0,4.0,65,0.00,,CLR,0.00,VWS V14.00,2013-02-13 08:20:00,
2013-02-13 02:25:00,26.8,16.2,28.73,SSW,207,0.0,4.0,64,0.00,,CLR,0.00,VWS V14.00,2013-02-13 08:25:00,
2013-02-13 02:30:00,26.4,15.6,28.73,South,177,0.0,0.0,63,0.00,,CLR,0.00,VWS V14.00,2013-02-13 08:30:00,
2013-02-13 02:35:00,25.9,14.7,28.73,South,186,0.0,0.0,62,0.00,,CLR,0.00,VWS V14.00,2013-02-13 08:35:00,
2013-02-13 02:40:00,26.4,15.9,28.73,SSW,193,2.2,4.0,64,0.00,,CLR,0.00,VWS V14.00,2013-02-13 08:40:00,
2013-02-13 02:45:00,26.1,15.6,28.73,South,187,0.0,4.0,64,0.00,,CLR,0.00,VWS V14.00,2013-02-13 08:45:00,
2013-02-13 02:50:00,25.5,14.7,28.73,South,187,0.0,0.0,63,0.00,,CLR,0.00,VWS V14.00,2013-02-13 08:50:00,
2013-02-13 02:55:00,25.0,14.2,28.70,South,188,0.0,0.0,63,0.00,,CLR,0.00,VWS V14.00,2013-02-13 08:55:00,
2013-02-13 03:00:00,24.6,13.8,28.70,South,188,0.0,0.0,63,0.00,,CLR,0.00,VWS V14.00,2013-02-13 09:00:00,
2013-02-13 03:05:00,24.8,14.4,28.70,South,187,0.0,2.2,64,0.00,,CLR,0.00,VWS V14.00,2013-02-13 09:05:00,
2013-02-13 03:10:00,24.8,14.7,28.70,South,189,0.0,2.2,65,0.00,,CLR,0.00,VWS V14.00,2013-02-13 09:10:00,
2013-02-13 03:15:00,25.0,15.2,28.70,South,190,0.0,0.0,66,0.00,,CLR,0.00,VWS V14.00,2013-02-13 09:15:00,
2013-02-13 03:20:00,25.3,16.3,28.70,SW,219,0.0,4.0,68,0.00,,CLR,0.00,VWS V14.00,2013-02-13 09:20:00,
2013-02-13 03:25:00,25.9,17.5,28.70,SSW,200,5.8,5.8,70,0.00,,CLR,0.00,VWS V14.00,2013-02-13 09:25:00,
2013-02-13 03:30:00,26.1,17.6,28.70,SW,227,2.7,3.1,70,0.00,,CLR,0.00,VWS V14.00,2013-02-13 09:30:00,
2013-02-13 03:35:00,26.2,17.1,28.70,South,181,2.2,5.4,68,0.00,,CLR,0.00,VWS V14.00,2013-02-13 09:35:00,
2013-02-13 03:40:00,26.4,17.0,28.70,South,189,0.0,5.8,67,0.00,,CLR,0.00,VWS V14.00,2013-02-13 09:40:00,
2013-02-13 03:45:00,26.4,16.3,28.70,South,186,2.7,3.1,65,0.00,,CLR,0.00,VWS V14.00,2013-02-13 09:45:00,
2013-02-13 03:50:00,26.2,15.7,28.70,South,186,0.0,4.0,64,0.00,,CLR,0.00,VWS V14.00,2013-02-13 09:50:00,
2013-02-13 03:55:00,26.2,15.4,28.70,SW,214,2.2,4.0,63,0.00,,CLR,0.00,VWS V14.00,2013-02-13 09:55:00,
2013-02-13 04:00:00,26.1,15.6,28.70,SW,231,0.0,4.0,64,0.00,,CLR,0.00,VWS V14.00,2013-02-13 10:00:00,
2013-02-13 04:05:00,25.5,14.7,28.70,SSE,164,0.0,3.6,63,0.00,,CLR,0.00,VWS V14.00,2013-02-13 10:05:00,
2013-02-13 04:10:00,25.7,15.6,28.70,SSW,204,0.0,5.4,65,0.00,,CLR,0.00,VWS V14.00,2013-02-13 10:10:00,
2013-02-13 04:15:00,25.5,15.4,28.70,SSW,194,0.0,4.9,65,0.00,,CLR,0.00,VWS V14.00,2013-02-13 10:15:00,
2013-02-13 04:20:00,25.5,15.4,28.70,SW,214,2.7,2.7,65,0.00,,CLR,0.00,VWS V14.00,2013-02-13 10:20:00,
2013-02-13 04:25:00,25.3,15.2,28.70,SSW,210,0.0,2.7,65,0.00,,CLR,0.00,VWS V14.00,2013-02-13 10:25:00,
2013-02-13 04:30:00,25.7,15.9,28.70,South,173,0.0,5.4,66,0.00,,CLR,0.00,VWS V14.00,2013-02-13 10:30:00,
2013-02-13 04:35:00,25.3,15.6,28.70,South,182,0.0,3.1,66,0.00,,CLR,0.00,VWS V14.00,2013-02-13 10:35:00,
2013-02-13 04:40:00,26.1,16.6,28.70,SW,217,3.1,4.0,67,0.00,,CLR,0.00,VWS V14.00,2013-02-13 10:40:00,
2013-02-13 04:45:00,26.6,17.1,28.70,SW,234,4.0,6.3,67,0.00,,CLR,0.00,VWS V14.00,2013-02-13 10:45:00,
2013-02-13 04:50:00,26.1,15.9,28.70,SSW,200,0.0,6.3,65,0.00,,CLR,0.00,VWS V14.00,2013-02-13 10:50:00,
2013-02-13 04:55:00,25.7,14.9,28.70,SSW,199,0.0,0.0,63,0.00,,CLR,0.00,VWS V14.00,2013-02-13 10:55:00,
2013-02-13 05:00:00,25.5,14.7,28.70,South,182,0.0,4.0,63,0.00,,CLR,0.00,VWS V14.00,2013-02-13 11:00:00,
2013-02-13 05:05:00,25.2,14.4,28.70,South,182,0.0,4.0,63,0.00,,CLR,0.00,VWS V14.00,2013-02-13 11:05:00,
2013-02-13 05:10:00,25.3,14.9,28.70,SW,232,2.7,4.0,64,0.00,,CLR,0.00,VWS V14.00,2013-02-13 11:10:00,
2013-02-13 05:15:00,26.4,17.0,28.70,SW,215,3.6,4.9,67,0.00,,CLR,0.00,VWS V14.00,2013-02-13 11:15:00,
2013-02-13 05:20:00,26.6,15.7,28.70,SSW,209,2.7,4.9,63,0.00,,CLR,0.00,VWS V14.00,2013-02-13 11:20:00,
2013-02-13 05:25:00,27.0,14.9,28.70,South,189,3.6,5.4,60,0.00,,CLR,0.00,VWS V14.00,2013-02-13 11:25:00,
2013-02-13 05:30:00,26.8,14.0,28.70,SSW,203,0.0,5.4,58,0.00,,CLR,0.00,VWS V14.00,2013-02-13 11:30:00,
2013-02-13 05:35:00,26.6,13.8,28.70,SSW,198,0.0,6.7,58,0.00,,CLR,0.00,VWS V14.00,2013-02-13 11:35:00,
2013-02-13 05:40:00,27.0,14.2,28.70,SW,225,2.7,6.7,58,0.00,,CLR,0.00,VWS V14.00,2013-02-13 11:40:00,